Aérodrome :
LOGIN :

S'inscrire | Disclaimer

   EN    FR    IT 

 










Légende :    VFR   VFR Marginal   IFR   IFR Intensif   IFR Très Intensif
Visi : 
Plafond : 
>= 8 km
>= 3000ft
5 à 8 km
1000 à 3000 ft
1500m à 5 km
500 à 1000 ft
800 à 1500m
200 à 500 ft
< 800m
< 200 ft
Symboles :   Orages  Brouillard  Fortes neiges  Fortes précipitations  Vent > 20 kt
SIGMETs :   Divers  Orages  Givrage  Turbulence  Onde Orograph.  Cendres Volcan.







- Altitude de l'aérodrome : 1197 ft
- Code IATA : SPM


ETAD - Spangdahlem Ab

METARs EXPIRÉS :
  • 210256Z AUTO 00000KT 9999 BKN055 18/15 A3014 RMK AO2 SLP184 T01750151 58006 $
  • 210511Z AUTO 04003KT 9999 BKN060 17/16 A3015 RMK AO2 SLP189 $
  • 210456Z AUTO 05003KT 9999 FEW060 16/15 A3015 RMK AO2 SLP189 T01600149 $

TAF TAF ETAD
Valide du 21 à 03h jusqu'au 22 à 09h UTC


210310Z 2103/2209 VRB06KT 9999 SCT025 BKN060 QNH3009INS
BECMG 2108/2109 10009KT 9999 SCT025 BKN060 QNH3006INS
BECMG 2115/2116 VRB06KT 9999 SCT050 QNH3005INS
BECMG 2120/2121 VRB06KT 9999 FEW050 QNH3003INS TX27/2113Z TN15/2104Z
Pas de NOTAMs connus pour ce terrain.



MET'MAP, la Météo Aéronautique d'un coup d'oeil ! - Copyright ORBIFLY Décembre 2007 - Disclaimer

ORBIFLY MET'MAP TEAM :

Programmation & Développement : Alexandra Zaïnal
Conception & Développement : Baudouin d'Aumeries
Co-Programmation & Développement : Marc-Olivier Méhu
Soutien technique & logistique : Manuel Goepfert

Contact : metmap@orbifly.com




SOURCES & CREDITS :

   NOAA